createdAt,value
2018-12-24T00:01:42.364Z,7.60
2018-12-24T00:04:08.690Z,7.50
2018-12-24T00:06:35.021Z,7.50
2018-12-24T00:09:01.367Z,7.50
2018-12-24T00:11:27.686Z,7.40
2018-12-24T00:13:54.030Z,7.30
2018-12-24T00:16:20.363Z,7.30
2018-12-24T00:18:46.702Z,7.30
2018-12-24T00:21:13.053Z,7.30
2018-12-24T00:23:39.590Z,7.30
2018-12-24T00:26:05.943Z,7.30
2018-12-24T00:28:32.291Z,7.20
2018-12-24T00:31:01.575Z,7.20
2018-12-24T00:33:27.911Z,7.10
2018-12-24T00:35:54.345Z,7.20
2018-12-24T00:38:20.679Z,7.10
2018-12-24T00:40:47.027Z,7.10
2018-12-24T00:43:13.359Z,7.10
2018-12-24T00:45:39.725Z,7.00
2018-12-24T00:48:06.046Z,7.00
2018-12-24T00:50:32.395Z,6.90
2018-12-24T00:52:58.731Z,6.90
2018-12-24T00:55:25.104Z,6.90
2018-12-24T00:57:51.502Z,6.80
2018-12-24T01:00:17.924Z,6.80
2018-12-24T01:02:44.265Z,6.70
2018-12-24T01:05:10.599Z,6.70
2018-12-24T01:07:36.963Z,6.60
2018-12-24T01:10:04.399Z,6.60
2018-12-24T01:12:31.055Z,6.60
2018-12-24T01:14:57.391Z,6.60
2018-12-24T01:17:23.744Z,6.60
2018-12-24T01:19:50.071Z,6.60
2018-12-24T01:22:16.430Z,6.70
2018-12-24T01:24:42.754Z,6.70
2018-12-24T01:27:09.106Z,6.70
2018-12-24T01:29:35.446Z,6.60
2018-12-24T01:32:01.774Z,6.60
2018-12-24T01:34:28.131Z,6.60
2018-12-24T01:36:54.467Z,6.60
2018-12-24T01:39:20.812Z,6.70
2018-12-24T01:41:47.147Z,6.70
2018-12-24T01:44:13.581Z,6.60
2018-12-24T01:46:40.020Z,6.60
2018-12-24T01:49:06.394Z,6.70
2018-12-24T01:51:32.722Z,6.60
2018-12-24T01:53:59.054Z,6.70
2018-12-24T01:56:25.398Z,6.80
2018-12-24T01:58:51.733Z,6.70
2018-12-24T02:01:18.181Z,6.70
2018-12-24T02:03:44.511Z,6.80
2018-12-24T02:06:10.854Z,6.80
2018-12-24T02:08:37.183Z,6.80
2018-12-24T02:11:03.635Z,6.80
2018-12-24T02:13:29.967Z,6.70
2018-12-24T02:15:56.306Z,6.80
2018-12-24T02:18:22.644Z,6.80
2018-12-24T02:20:48.994Z,6.80
2018-12-24T02:23:15.348Z,6.90
2018-12-24T02:25:41.666Z,6.80
2018-12-24T02:28:08.010Z,6.80
2018-12-24T02:30:34.347Z,6.80
2018-12-24T02:33:00.691Z,6.80
2018-12-24T02:35:27.011Z,6.80
2018-12-24T02:37:53.366Z,6.90
2018-12-24T02:40:19.707Z,6.90
2018-12-24T02:42:52.208Z,6.90
2018-12-24T02:45:14.375Z,6.90
2018-12-24T02:47:40.730Z,6.90
2018-12-24T02:50:07.056Z,6.90
2018-12-24T02:52:33.592Z,6.80
2018-12-24T02:54:59.950Z,6.80
2018-12-24T02:57:26.290Z,6.80
2018-12-24T02:59:52.623Z,6.80
2018-12-24T03:02:18.959Z,6.80
2018-12-24T03:04:45.316Z,6.80
2018-12-24T03:07:11.636Z,6.80
2018-12-24T03:09:38.088Z,6.80
2018-12-24T03:12:04.416Z,6.80
2018-12-24T03:14:30.767Z,6.80
2018-12-24T03:16:57.271Z,6.80
2018-12-24T03:19:23.701Z,6.80
2018-12-24T03:21:50.049Z,6.80
2018-12-24T03:24:16.399Z,6.80
2018-12-24T03:26:43.011Z,6.80
2018-12-24T03:29:09.368Z,6.80
2018-12-24T03:31:35.700Z,6.80
2018-12-24T03:34:02.028Z,6.80
2018-12-24T03:36:28.384Z,6.90
2018-12-24T03:38:54.706Z,6.90
2018-12-24T03:41:21.470Z,6.90
2018-12-24T03:43:47.790Z,6.90
2018-12-24T03:46:14.138Z,6.90
2018-12-24T03:48:40.466Z,6.80
2018-12-24T03:51:06.830Z,6.90
2018-12-24T03:53:33.158Z,6.90
2018-12-24T03:55:59.602Z,6.80
2018-12-24T03:58:25.928Z,6.80
2018-12-24T04:00:52.280Z,6.80
2018-12-24T04:03:18.711Z,6.80
2018-12-24T04:05:45.034Z,6.80
2018-12-24T04:08:11.378Z,6.80
2018-12-24T04:10:37.712Z,6.80
2018-12-24T04:13:04.063Z,6.80
2018-12-24T04:15:30.390Z,6.80
2018-12-24T04:17:56.755Z,6.80
2018-12-24T04:20:23.416Z,6.70
2018-12-24T04:22:49.842Z,6.70
2018-12-24T04:25:16.170Z,6.70
2018-12-24T04:27:42.523Z,6.70
2018-12-24T04:30:08.855Z,6.80
2018-12-24T04:32:35.209Z,6.80
2018-12-24T04:35:01.526Z,6.80
2018-12-24T04:37:27.882Z,6.80
2018-12-24T04:39:54.542Z,6.80
2018-12-24T04:42:20.867Z,6.70
2018-12-24T04:44:47.224Z,6.70
2018-12-24T04:47:13.542Z,6.80
2018-12-24T04:49:39.897Z,6.80
2018-12-24T04:52:06.218Z,6.70
2018-12-24T04:54:32.559Z,6.70
2018-12-24T04:56:58.887Z,6.80
2018-12-24T04:59:25.232Z,6.70
2018-12-24T05:01:51.563Z,6.70
2018-12-24T05:04:17.915Z,6.80
2018-12-24T05:06:44.247Z,6.70
2018-12-24T05:09:10.595Z,6.80
2018-12-24T05:11:36.927Z,6.80
2018-12-24T05:14:03.326Z,6.70
2018-12-24T05:16:29.651Z,6.70
2018-12-24T05:18:56.015Z,6.80
2018-12-24T05:21:22.351Z,6.80
2018-12-24T05:23:48.700Z,6.80
2018-12-24T05:26:15.052Z,6.80
2018-12-24T05:28:41.398Z,6.90
2018-12-24T05:31:07.718Z,6.90
2018-12-24T05:33:34.046Z,6.80
2018-12-24T05:36:00.395Z,6.90
2018-12-24T05:38:26.725Z,6.90
2018-12-24T05:40:53.069Z,6.80
2018-12-24T05:43:19.398Z,6.80
2018-12-24T05:45:45.742Z,6.80
2018-12-24T05:48:12.070Z,6.90
2018-12-24T05:50:38.415Z,6.90
2018-12-24T05:53:04.742Z,6.80
2018-12-24T05:55:31.095Z,6.90
2018-12-24T05:57:57.422Z,6.90
2018-12-24T06:00:23.769Z,6.90
2018-12-24T06:02:50.099Z,7.00
2018-12-24T06:05:16.431Z,6.90
2018-12-24T06:07:42.787Z,7.00
2018-12-24T06:10:09.319Z,7.00
2018-12-24T06:12:35.661Z,7.00
2018-12-24T06:15:02.016Z,6.90
2018-12-24T06:17:28.408Z,6.90
2018-12-24T06:19:54.859Z,6.90
2018-12-24T06:22:21.214Z,6.90
2018-12-24T06:24:47.546Z,6.90
2018-12-24T06:27:13.903Z,6.90
2018-12-24T06:29:40.226Z,7.00
2018-12-24T06:32:06.575Z,6.90
2018-12-24T06:34:32.898Z,7.00
2018-12-24T06:36:59.251Z,7.00
2018-12-24T06:39:25.582Z,7.00
2018-12-24T06:41:51.936Z,7.10
2018-12-24T06:44:18.262Z,7.00
2018-12-24T06:46:44.704Z,6.90
2018-12-24T06:49:11.062Z,6.90
2018-12-24T06:51:37.394Z,6.90
2018-12-24T06:54:03.742Z,6.90
2018-12-24T06:56:30.070Z,6.90
2018-12-24T06:58:56.423Z,7.00
2018-12-24T07:01:22.756Z,7.00
2018-12-24T07:03:49.198Z,6.90
2018-12-24T07:06:15.626Z,6.90
2018-12-24T07:08:41.970Z,6.90
2018-12-24T07:11:08.308Z,7.00
2018-12-24T07:13:34.675Z,6.90
2018-12-24T07:16:01.019Z,7.00
2018-12-24T07:18:27.359Z,7.10
2018-12-24T07:20:53.690Z,7.10
2018-12-24T07:23:20.030Z,7.10
2018-12-24T07:25:46.362Z,7.00
2018-12-24T07:28:12.694Z,7.10
2018-12-24T07:30:39.047Z,7.00
2018-12-24T07:33:05.379Z,7.00
2018-12-24T07:35:31.731Z,6.90
2018-12-24T07:37:58.063Z,7.00
2018-12-24T07:40:24.423Z,7.00
2018-12-24T07:42:50.766Z,6.90
2018-12-24T07:45:17.112Z,7.00
2018-12-24T07:47:43.442Z,7.00
2018-12-24T07:50:09.795Z,6.90
2018-12-24T07:52:36.122Z,6.90
2018-12-24T07:55:02.630Z,6.90
2018-12-24T07:57:28.974Z,7.00
2018-12-24T07:59:55.379Z,6.90
2018-12-24T08:02:21.714Z,7.00
2018-12-24T08:04:48.045Z,7.00
2018-12-24T08:07:14.390Z,7.00
2018-12-24T08:09:40.718Z,7.00
2018-12-24T08:12:07.102Z,7.10
2018-12-24T08:14:33.520Z,7.20
2018-12-24T08:16:59.907Z,7.20
2018-12-24T08:19:26.247Z,7.10
2018-12-24T08:21:52.589Z,7.10
2018-12-24T08:24:18.914Z,7.00
2018-12-24T08:26:45.239Z,7.00
2018-12-24T08:29:11.599Z,7.00
2018-12-24T08:31:37.931Z,7.00
2018-12-24T08:34:04.274Z,7.10
2018-12-24T08:36:30.602Z,7.20
2018-12-24T08:38:56.951Z,7.20
2018-12-24T08:41:23.281Z,7.20
2018-12-24T08:43:49.631Z,7.10
2018-12-24T08:46:15.982Z,7.10
2018-12-24T08:48:42.326Z,7.10
2018-12-24T08:51:08.686Z,7.20
2018-12-24T08:53:35.026Z,7.30
2018-12-24T08:56:01.415Z,7.20
2018-12-24T08:58:27.955Z,7.30
2018-12-24T09:00:54.290Z,7.20
2018-12-24T09:03:20.638Z,7.20
2018-12-24T09:05:47.006Z,7.20
2018-12-24T09:08:13.340Z,7.30
2018-12-24T09:10:39.787Z,7.20
2018-12-24T09:13:06.107Z,7.30
2018-12-24T09:15:32.475Z,7.20
2018-12-24T09:17:58.812Z,7.10
2018-12-24T09:20:25.172Z,7.20
2018-12-24T09:22:51.491Z,7.20
2018-12-24T09:25:17.849Z,7.20
2018-12-24T09:27:44.179Z,7.30
2018-12-24T09:30:11.030Z,7.30
2018-12-24T09:32:37.495Z,7.20
2018-12-24T09:35:03.907Z,7.20
2018-12-24T09:37:30.367Z,7.30
2018-12-24T09:39:56.775Z,7.30
2018-12-24T09:42:23.118Z,7.30
2018-12-24T09:47:51.587Z,7.20
2018-12-24T09:50:37.779Z,7.40
2018-12-24T09:53:23.999Z,7.30
2018-12-24T09:56:12.475Z,7.40
2018-12-24T09:59:18.188Z,7.30
2018-12-24T10:02:04.413Z,7.10
2018-12-24T10:04:50.703Z,7.10
2018-12-24T10:07:37.520Z,7.20
2018-12-24T10:10:23.722Z,7.20
2018-12-24T10:13:09.940Z,7.30
2018-12-24T10:15:49.595Z,7.30
2018-12-24T10:18:29.003Z,7.20
2018-12-24T10:21:08.374Z,7.30
2018-12-24T10:23:47.784Z,7.30
2018-12-24T10:26:27.296Z,7.30
2018-12-24T10:29:06.696Z,7.30
2018-12-24T10:31:36.451Z,7.30
2018-12-24T10:34:22.671Z,7.30
2018-12-24T10:37:08.868Z,7.40
2018-12-24T10:39:55.371Z,7.60
2018-12-24T10:42:41.579Z,7.40
2018-12-24T10:45:27.795Z,7.40
2018-12-24T10:48:13.987Z,7.40
2018-12-24T10:51:00.202Z,7.50
2018-12-24T10:53:46.408Z,7.60
2018-12-24T10:56:32.686Z,7.60
2018-12-24T10:59:18.971Z,7.70
2018-12-24T11:02:05.187Z,7.70
2018-12-24T11:04:51.391Z,7.70
2018-12-24T11:07:37.704Z,7.70
2018-12-24T11:10:24.591Z,7.60
2018-12-24T11:13:10.806Z,7.60
2018-12-24T11:15:50.591Z,7.50
2018-12-24T11:18:29.899Z,7.50
2018-12-24T11:21:09.383Z,7.60
2018-12-24T11:23:48.648Z,7.60
2018-12-24T11:26:28.068Z,7.50
2018-12-24T11:29:27.828Z,7.50
2018-12-24T11:32:07.227Z,7.50
2018-12-24T11:34:46.699Z,7.40
2018-12-24T11:37:26.333Z,7.60
2018-12-24T11:40:05.768Z,7.70
2018-12-24T11:42:45.517Z,7.70
2018-12-24T11:45:24.763Z,7.80
2018-12-24T11:48:04.371Z,7.70
2018-12-24T11:50:44.080Z,7.80
2018-12-24T11:53:23.666Z,7.80
2018-12-24T11:56:03.047Z,7.60
2018-12-24T11:58:43.220Z,7.70
2018-12-24T12:01:23.872Z,7.80
2018-12-24T12:04:04.041Z,7.90
2018-12-24T12:06:41.383Z,7.90
2018-12-24T12:09:27.590Z,7.90
2018-12-24T12:12:13.788Z,7.80
2018-12-24T12:14:53.796Z,7.90
2018-12-24T12:17:21.691Z,7.90
2018-12-24T12:20:07.900Z,7.70
2018-12-24T12:22:54.098Z,7.80
2018-12-24T12:25:47.891Z,7.80
2018-12-24T12:28:34.263Z,7.80
2018-12-24T12:31:20.748Z,7.90
2018-12-24T12:34:07.060Z,7.90
2018-12-24T12:36:53.256Z,8.10
2018-12-24T12:39:39.468Z,8.10
2018-12-24T12:42:25.683Z,8.10
2018-12-24T12:45:11.911Z,8.10
2018-12-24T12:47:58.131Z,8.20
2018-12-24T12:50:44.456Z,8.30
2018-12-24T12:53:30.740Z,8.30
2018-12-24T12:56:17.048Z,8.40
2018-12-24T12:59:03.254Z,8.20
2018-12-24T13:01:49.571Z,8.10
2018-12-24T13:04:55.674Z,8.00
2018-12-24T13:07:41.865Z,7.90
2018-12-24T13:10:28.079Z,8.10
2018-12-24T13:13:14.303Z,8.20
2018-12-24T13:15:59.504Z,8.30
2018-12-24T13:18:35.888Z,8.30
2018-12-24T13:21:15.671Z,8.20
2018-12-24T13:23:55.067Z,8.30
2018-12-24T13:26:34.663Z,8.30
2018-12-24T13:35:46.021Z,8.10
2018-12-24T13:38:23.579Z,8.00
2018-12-24T13:41:09.783Z,8.00
2018-12-24T13:43:56.114Z,8.00
2018-12-24T13:46:42.390Z,7.80
2018-12-24T13:49:28.599Z,7.70
2018-12-24T13:52:14.795Z,7.70
2018-12-24T13:55:01.012Z,7.70
2018-12-24T13:57:47.311Z,7.50
2018-12-24T14:00:33.540Z,7.50
2018-12-24T14:03:19.851Z,7.50
2018-12-24T14:06:06.055Z,7.40
2018-12-24T14:08:52.606Z,7.30
2018-12-24T14:11:32.591Z,7.20
2018-12-24T14:14:12.183Z,7.40
2018-12-24T14:16:51.619Z,7.40
2018-12-24T14:19:30.999Z,7.40
2018-12-24T14:22:10.507Z,7.30
2018-12-24T14:24:49.940Z,7.40
2018-12-24T14:27:29.315Z,7.30
2018-12-24T14:30:08.728Z,7.20
2018-12-24T14:32:47.986Z,7.30
2018-12-24T14:35:27.568Z,7.40
2018-12-24T14:38:07.092Z,7.30
2018-12-24T14:40:46.539Z,7.30
2018-12-24T14:43:26.159Z,7.30
2018-12-24T14:46:03.518Z,7.30
2018-12-24T14:48:49.828Z,7.20
2018-12-24T14:51:36.139Z,7.20
2018-12-24T14:54:22.340Z,7.20
2018-12-24T14:56:48.910Z,7.20
2018-12-24T14:59:35.121Z,7.20
2018-12-24T15:02:21.427Z,7.00
2018-12-24T15:05:07.631Z,7.10
2018-12-24T15:07:47.040Z,7.10
2018-12-24T15:10:27.583Z,7.20
2018-12-24T15:13:06.976Z,7.10
2018-12-24T15:15:46.254Z,6.90
2018-12-24T15:18:25.699Z,6.80
2018-12-24T15:21:05.176Z,6.90
2018-12-24T15:23:44.595Z,7.00
2018-12-24T15:26:23.990Z,6.90
2018-12-24T15:29:03.580Z,6.80
2018-12-24T15:31:43.024Z,6.70
2018-12-24T15:34:22.600Z,6.70
2018-12-24T15:37:02.800Z,6.70
2018-12-24T15:39:29.162Z,6.50
2018-12-24T15:42:15.354Z,6.50
2018-12-24T15:45:01.580Z,6.40
2018-12-24T15:47:27.932Z,6.10
2018-12-24T15:49:54.367Z,6.20
2018-12-24T15:52:20.694Z,6.10
2018-12-24T15:54:47.047Z,6.10
2018-12-24T15:57:13.379Z,5.90
2018-12-24T15:59:39.722Z,5.90
2018-12-24T16:02:06.070Z,5.80
2018-12-24T16:04:32.390Z,5.80
2018-12-24T16:06:58.833Z,5.70
2018-12-24T16:09:25.467Z,5.60
2018-12-24T16:11:51.811Z,5.50
2018-12-24T16:14:18.134Z,5.50
2018-12-24T16:16:50.908Z,5.40
2018-12-24T16:19:12.719Z,5.30
2018-12-24T16:21:39.067Z,5.30
2018-12-24T16:24:05.399Z,5.20
2018-12-24T16:26:31.739Z,5.20
2018-12-24T16:28:58.071Z,5.10
2018-12-24T16:31:24.423Z,5.20
2018-12-24T16:33:50.751Z,5.10
2018-12-24T16:36:17.099Z,5.10
2018-12-24T16:38:43.434Z,5.00
2018-12-24T16:41:09.771Z,4.90
2018-12-24T16:43:36.119Z,4.80
2018-12-24T16:46:02.456Z,4.70
2018-12-24T16:48:28.795Z,4.60
2018-12-24T16:50:55.126Z,4.60
2018-12-24T16:53:21.479Z,4.60
2018-12-24T16:55:47.807Z,4.60
2018-12-24T16:58:14.171Z,4.60
2018-12-24T17:00:40.503Z,4.60
2018-12-24T17:03:06.850Z,4.50
2018-12-24T17:05:33.175Z,4.40
2018-12-24T17:07:59.527Z,4.40
2018-12-24T17:10:25.850Z,4.50
2018-12-24T17:12:52.243Z,4.40
2018-12-24T17:15:18.612Z,4.30
2018-12-24T17:17:45.067Z,4.30
2018-12-24T17:20:11.470Z,4.30
2018-12-24T17:22:37.799Z,4.30
2018-12-24T17:25:04.151Z,4.20
2018-12-24T17:27:30.478Z,4.20
2018-12-24T17:29:56.826Z,4.20
2018-12-24T17:32:23.179Z,4.20
2018-12-24T17:34:49.874Z,4.20
2018-12-24T17:37:16.211Z,4.10
2018-12-24T17:39:42.559Z,4.00
2018-12-24T17:42:08.890Z,4.00
2018-12-24T17:44:35.263Z,4.00
2018-12-24T17:47:01.679Z,3.90
2018-12-24T17:49:28.048Z,3.90
2018-12-24T17:51:54.386Z,3.80
2018-12-24T17:54:20.719Z,3.90
2018-12-24T17:56:47.062Z,3.80
2018-12-24T17:59:13.399Z,3.70
2018-12-24T18:01:39.942Z,3.70
2018-12-24T18:04:06.273Z,3.70
2018-12-24T18:06:32.625Z,3.60
2018-12-24T18:08:59.063Z,3.70
2018-12-24T18:11:25.406Z,3.60
2018-12-24T18:13:51.730Z,3.60
2018-12-24T18:16:18.406Z,3.60
2018-12-24T18:18:44.737Z,3.50
2018-12-24T18:21:11.094Z,3.50
2018-12-24T18:23:37.423Z,3.50
2018-12-24T18:26:03.753Z,3.50
2018-12-24T18:28:30.103Z,3.40
2018-12-24T18:30:57.480Z,3.40
2018-12-24T18:33:24.078Z,3.40
2018-12-24T18:35:50.414Z,3.30
2018-12-24T18:38:16.759Z,3.40
2018-12-24T18:40:43.186Z,3.40
2018-12-24T18:43:09.530Z,3.40
2018-12-24T18:45:36.074Z,3.40
2018-12-24T18:48:02.530Z,3.40
2018-12-24T18:50:28.860Z,3.40
2018-12-24T18:52:55.219Z,3.40
2018-12-24T18:55:21.556Z,3.40
2018-12-24T18:57:47.882Z,3.40
2018-12-24T19:00:14.226Z,3.30
2018-12-24T19:02:40.607Z,3.10
2018-12-24T19:05:07.374Z,3.10
2018-12-24T19:07:34.003Z,3.00
2018-12-24T19:10:00.353Z,3.00
2018-12-24T19:12:26.683Z,2.90
2018-12-24T19:14:53.031Z,2.90
2018-12-24T19:17:19.359Z,2.90
2018-12-24T19:19:45.706Z,2.90
2018-12-24T19:22:12.035Z,2.80
2018-12-24T19:24:38.358Z,2.80
2018-12-24T19:27:04.712Z,2.70
2018-12-24T19:29:31.038Z,2.70
2018-12-24T19:31:57.391Z,2.60
2018-12-24T19:34:23.718Z,2.60
2018-12-24T19:36:50.071Z,2.60
2018-12-24T19:39:16.401Z,2.60
2018-12-24T19:41:42.768Z,2.50
2018-12-24T19:44:09.094Z,2.60
2018-12-24T19:46:35.434Z,2.50
2018-12-24T19:49:01.767Z,2.50
2018-12-24T19:51:28.106Z,2.50
2018-12-24T19:53:54.443Z,2.40
2018-12-24T19:56:20.786Z,2.40
2018-12-24T19:58:47.119Z,2.40
2018-12-24T20:01:13.487Z,2.40
2018-12-24T20:03:39.911Z,2.30
2018-12-24T20:06:06.234Z,2.20
2018-12-24T20:08:32.595Z,2.20
2018-12-24T20:10:58.921Z,2.20
2018-12-24T20:13:25.280Z,2.20
2018-12-24T20:15:51.686Z,2.20
2018-12-24T20:18:18.111Z,2.20
2018-12-24T20:20:44.435Z,2.20
2018-12-24T20:23:10.774Z,2.10
2018-12-24T20:25:37.103Z,2.20
2018-12-24T20:28:03.451Z,2.10
2018-12-24T20:30:29.783Z,2.10
2018-12-24T20:32:56.137Z,2.10
2018-12-24T20:35:22.467Z,2.00
2018-12-24T20:37:48.851Z,2.00
2018-12-24T20:40:15.179Z,1.90
2018-12-24T20:42:43.100Z,2.00
2018-12-24T20:45:09.763Z,1.90
2018-12-24T20:47:36.096Z,1.90
2018-12-24T20:50:02.448Z,1.80
2018-12-24T20:52:28.787Z,1.80
2018-12-24T20:54:55.132Z,1.80
2018-12-24T20:57:21.463Z,1.80
2018-12-24T20:59:47.815Z,1.80
2018-12-24T21:02:14.147Z,1.70
2018-12-24T21:04:40.495Z,1.80
2018-12-24T21:07:06.821Z,1.70
2018-12-24T21:09:33.167Z,1.70
2018-12-24T21:11:59.493Z,1.70
2018-12-24T21:14:25.842Z,1.70
2018-12-24T21:16:52.168Z,1.70
2018-12-24T21:19:18.495Z,1.70
2018-12-24T21:21:44.835Z,1.70
2018-12-24T21:24:11.162Z,1.70
2018-12-24T21:26:37.506Z,1.70
2018-12-24T21:29:03.833Z,1.70
2018-12-24T21:31:30.202Z,1.70
2018-12-24T21:33:56.539Z,1.70
2018-12-24T21:36:22.891Z,1.70
2018-12-24T21:38:49.316Z,1.70
2018-12-24T21:41:15.716Z,1.60
2018-12-24T21:43:42.046Z,1.50
2018-12-24T21:46:08.398Z,1.50
2018-12-24T21:48:34.734Z,1.50
2018-12-24T21:51:01.074Z,1.50
2018-12-24T21:53:27.415Z,1.40
2018-12-24T21:55:53.764Z,1.50
2018-12-24T21:58:20.090Z,1.50
2018-12-24T22:00:46.443Z,1.50
2018-12-24T22:03:12.775Z,1.50
2018-12-24T22:05:39.107Z,1.50
2018-12-24T22:08:05.453Z,1.50
2018-12-24T22:10:31.791Z,1.50
2018-12-24T22:12:58.155Z,1.60
2018-12-24T22:15:24.482Z,1.60
2018-12-24T22:17:51.139Z,1.50
2018-12-24T22:20:17.466Z,1.50
2018-12-24T22:22:44.176Z,1.50
2018-12-24T22:25:10.570Z,1.60
2018-12-24T22:27:36.934Z,1.70
2018-12-24T22:30:04.479Z,1.70
2018-12-24T22:32:30.817Z,1.60
2018-12-24T22:34:57.172Z,1.60
2018-12-24T22:37:23.512Z,1.70
2018-12-24T22:39:49.893Z,1.80
2018-12-24T22:42:16.222Z,1.80
2018-12-24T22:44:42.574Z,1.80
2018-12-24T22:47:08.919Z,1.80
2018-12-24T22:49:35.266Z,1.80
2018-12-24T22:52:01.598Z,1.80
2018-12-24T22:54:27.954Z,1.80
2018-12-24T22:56:54.294Z,1.80
2018-12-24T22:59:20.734Z,1.90
2018-12-24T23:01:47.212Z,1.80
2018-12-24T23:04:13.556Z,1.80
2018-12-24T23:06:39.891Z,1.70
2018-12-24T23:09:07.054Z,1.80
2018-12-24T23:11:33.498Z,1.70
2018-12-24T23:13:59.839Z,1.70
2018-12-24T23:16:26.187Z,1.80
2018-12-24T23:18:52.522Z,1.90
2018-12-24T23:21:18.956Z,1.90
2018-12-24T23:23:45.294Z,2.00
2018-12-24T23:26:11.635Z,1.90
2018-12-24T23:28:37.978Z,2.00
2018-12-24T23:31:06.069Z,1.90
2018-12-24T23:33:32.895Z,1.90
2018-12-24T23:35:59.255Z,1.90
2018-12-24T23:38:25.582Z,1.90
2018-12-24T23:40:51.927Z,2.00
2018-12-24T23:43:18.337Z,2.10
2018-12-24T23:45:44.711Z,2.10
2018-12-24T23:48:11.056Z,2.00
2018-12-24T23:50:37.402Z,2.00
2018-12-24T23:53:03.734Z,2.00
2018-12-24T23:55:30.066Z,2.00
2018-12-24T23:57:56.420Z,2.10
